Erlanger, KY

5:14 AM EST on February 10, 2016 (GMT -0500)
Jacqueline Heights | | Change Station
CLOSE
Current Station
Personal Weather Station
Location: Erlanger, KY
Elevation: 801 ft
Nearby Weather Stations
Active Advisory: Winter Weather Advisory

Elev 801 ft 39.00 °N, 84.59 °W | Updated 10 seconds ago

Snow
Snow
15.4 °F
Feels Like 15 °F
N
1.8
Wind Variable Wind from West
Gusts 2.5 mph

Today
High -- | Low -- °F
--% Chance of Precip.
Yesterday
High -- | Low -- °F
Precip. -- in
Pressure 29.96 in
Visibility 9.0 miles
Clouds Few 6000 ft
Overcast 8000 ft
Windchill 15 °F
Dew Point 0 °F
Humidity 50%
Rainfall 0.00 in
Snow Depth Not available.
7:36 AM 6:09 PM
Waxing Crescent, 4% visible
METAR KCVG 100952Z 26009KT 9SM -SN FEW060 OVC080 M09/M13 A2993 RMK AO2 SLP146 P0000 T10941128
Pressure 29.96 in
Visibility 9.0 miles
Clouds Few 6000 ft
Overcast 8000 ft
Windchill 15 °F
Dew Point 0 °F
Humidity 50%
Rainfall 0.00 in
Snow Depth Not available.
7:36 AM 6:09 PM
Waxing Crescent, 4% visible
METAR KCVG 100952Z 26009KT 9SM -SN FEW060 OVC080 M09/M13 A2993 RMK AO2 SLP146 P0000 T10941128

10-Day Weather Forecast

Almanac

Astronomy

Feb. 10, 2016 Rise Set
Actual Time
Civil Twilight
Nautical Twilight
Astronomical Twilight
Moon
Length of Visible Light
Length of Day
Tomorrow will be .
, % of the Moon is Illuminated

Today's Extremes

State Highs State Lows

Community

WunderPhotos

Upload Photos

1,891,830 photos uploaded!

WunderBlog® & News

Nearby

Air Quality

  Air Quality AQ Index Pollutant
Not available.

Snow Depth

Station Depth Elevation

Earthquake Activity

City Distance Mag. Time & Date
Minimum magnitude displayed is 2.5.

Coastal Water Temperatures

Place Temperature

Stations

Nearby Weather Stations

Station Location Temp. Windchill Dew Point Humidity Wind Precip. Elev Updated Type
                   

Watches & Warnings

Winter Weather Advisory
Issued: 3:51 AM EST Feb. 10, 2016 – National Weather Service

... Winter Weather Advisory remains in effect until 10 am EST this
morning...

* timing... scattered snow showers through this morning.

* Accumulations... snow accumulations of up to 1 inch.

* Impacts... travel difficulties are expected due to reduced
visibilities and snow accumulations.

Precautionary/preparedness actions...

Remember... a Winter Weather Advisory for snow means that periods
of snow will cause primarily travel difficulties. Be prepared for
snow covered roads and limited visibilities... and use caution
while driving. Stay tuned to NOAA Weather Radio or your favorite
source of information for the latest updates. Additional details
can also be found at www.Weather.Gov/iln as well as on our
facebook and twitter pages.